sensor_id;sensor_type;location;lat;lon;timestamp;P1;P2;P0
63662;PMS5003;49815;51.618;0.336;2023-03-07T00:00:43;10;10;
63662;PMS5003;49815;51.618;0.336;2023-03-07T00:03:09;12;9;
63662;PMS5003;49815;51.618;0.336;2023-03-07T00:05:34;10;9;
63662;PMS5003;49815;51.618;0.336;2023-03-07T00:07:59;10;10;
63662;PMS5003;49815;51.618;0.336;2023-03-07T00:10:25;9;9;
63662;PMS5003;49815;51.618;0.336;2023-03-07T00:12:51;9;9;
63662;PMS5003;49815;51.618;0.336;2023-03-07T00:15:16;12;11;
63662;PMS5003;49815;51.618;0.336;2023-03-07T00:17:42;14;10;
63662;PMS5003;49815;51.618;0.336;2023-03-07T00:20:08;11;10;
63662;PMS5003;49815;51.618;0.336;2023-03-07T00:22:33;12;10;
63662;PMS5003;49815;51.618;0.336;2023-03-07T00:24:58;14;12;
63662;PMS5003;49815;51.618;0.336;2023-03-07T00:27:24;15;12;
63662;PMS5003;49815;51.618;0.336;2023-03-07T00:29:49;12;12;
63662;PMS5003;49815;51.618;0.336;2023-03-07T00:32:15;12;10;
63662;PMS5003;49815;51.618;0.336;2023-03-07T00:34:40;16;10;
63662;PMS5003;49815;51.618;0.336;2023-03-07T00:37:06;9;9;
63662;PMS5003;49815;51.618;0.336;2023-03-07T00:39:32;11;11;
63662;PMS5003;49815;51.618;0.336;2023-03-07T00:41:58;14;13;
63662;PMS5003;49815;51.618;0.336;2023-03-07T00:44:23;14;13;
63662;PMS5003;49815;51.618;0.336;2023-03-07T00:46:48;11;11;
63662;PMS5003;49815;51.618;0.336;2023-03-07T00:49:14;13;13;
63662;PMS5003;49815;51.618;0.336;2023-03-07T00:51:40;15;14;
63662;PMS5003;49815;51.618;0.336;2023-03-07T00:54:05;13;11;
63662;PMS5003;49815;51.618;0.336;2023-03-07T00:56:30;17;16;
63662;PMS5003;49815;51.618;0.336;2023-03-07T00:58:56;11;11;
63662;PMS5003;49815;51.618;0.336;2023-03-07T01:01:22;14;13;
63662;PMS5003;49815;51.618;0.336;2023-03-07T01:03:48;13;13;
63662;PMS5003;49815;51.618;0.336;2023-03-07T01:06:14;11;11;
63662;PMS5003;49815;51.618;0.336;2023-03-07T01:08:39;13;13;
63662;PMS5003;49815;51.618;0.336;2023-03-07T01:11:05;19;16;
63662;PMS5003;49815;51.618;0.336;2023-03-07T01:13:31;20;16;
63662;PMS5003;49815;51.618;0.336;2023-03-07T01:18:21;19;19;
63662;PMS5003;49815;51.618;0.336;2023-03-07T01:20:47;20;17;
63662;PMS5003;49815;51.618;0.336;2023-03-07T01:23:13;13;13;
63662;PMS5003;49815;51.618;0.336;2023-03-07T01:25:38;10;10;
63662;PMS5003;49815;51.618;0.336;2023-03-07T01:28:04;11;9;
63662;PMS5003;49815;51.618;0.336;2023-03-07T01:30:29;11;11;
63662;PMS5003;49815;51.618;0.336;2023-03-07T01:32:55;14;14;
63662;PMS5003;49815;51.618;0.336;2023-03-07T01:35:20;16;10;
63662;PMS5003;49815;51.618;0.336;2023-03-07T01:37:46;11;9;
63662;PMS5003;49815;51.618;0.336;2023-03-07T01:40:11;10;10;
63662;PMS5003;49815;51.618;0.336;2023-03-07T01:42:37;8;8;
63662;PMS5003;49815;51.618;0.336;2023-03-07T01:45:04;9;8;
63662;PMS5003;49815;51.618;0.336;2023-03-07T01:47:28;9;9;
63662;PMS5003;49815;51.618;0.336;2023-03-07T01:49:54;7;7;
63662;PMS5003;49815;51.618;0.336;2023-03-07T01:52:19;8;8;
63662;PMS5003;49815;51.618;0.336;2023-03-07T01:54:46;5;5;
63662;PMS5003;49815;51.618;0.336;2023-03-07T01:57:10;4;3;
63662;PMS5003;49815;51.618;0.336;2023-03-07T01:59:37;7;7;
63662;PMS5003;49815;51.618;0.336;2023-03-07T02:02:02;5;5;
63662;PMS5003;49815;51.618;0.336;2023-03-07T02:04:29;5;5;
63662;PMS5003;49815;51.618;0.336;2023-03-07T02:06:53;3;3;
63662;PMS5003;49815;51.618;0.336;2023-03-07T02:09:19;4;4;
63662;PMS5003;49815;51.618;0.336;2023-03-07T02:11:44;5;5;
63662;PMS5003;49815;51.618;0.336;2023-03-07T02:14:10;3;3;
63662;PMS5003;49815;51.618;0.336;2023-03-07T02:16:36;3;3;
63662;PMS5003;49815;51.618;0.336;2023-03-07T02:19:01;4;3;
63662;PMS5003;49815;51.618;0.336;2023-03-07T02:21:29;5;4;
63662;PMS5003;49815;51.618;0.336;2023-03-07T02:23:55;4;4;
63662;PMS5003;49815;51.618;0.336;2023-03-07T02:26:20;5;4;
63662;PMS5003;49815;51.618;0.336;2023-03-07T02:28:44;3;3;
63662;PMS5003;49815;51.618;0.336;2023-03-07T02:31:10;4;3;
63662;PMS5003;49815;51.618;0.336;2023-03-07T02:33:35;8;4;
63662;PMS5003;49815;51.618;0.336;2023-03-07T02:36:02;7;5;
63662;PMS5003;49815;51.618;0.336;2023-03-07T02:38:27;5;5;
63662;PMS5003;49815;51.618;0.336;2023-03-07T02:40:52;3;3;
63662;PMS5003;49815;51.618;0.336;2023-03-07T02:43:18;5;4;
63662;PMS5003;49815;51.618;0.336;2023-03-07T02:45:44;4;4;
63662;PMS5003;49815;51.618;0.336;2023-03-07T02:48:09;7;4;
63662;PMS5003;49815;51.618;0.336;2023-03-07T02:50:35;7;6;
63662;PMS5003;49815;51.618;0.336;2023-03-07T02:53:01;9;9;
63662;PMS5003;49815;51.618;0.336;2023-03-07T02:55:26;7;7;
63662;PMS5003;49815;51.618;0.336;2023-03-07T02:57:52;6;6;
63662;PMS5003;49815;51.618;0.336;2023-03-07T03:00:18;9;7;
63662;PMS5003;49815;51.618;0.336;2023-03-07T03:02:43;7;7;
63662;PMS5003;49815;51.618;0.336;2023-03-07T03:05:09;9;9;
63662;PMS5003;49815;51.618;0.336;2023-03-07T03:07:35;9;8;
63662;PMS5003;49815;51.618;0.336;2023-03-07T03:10:00;9;9;
63662;PMS5003;49815;51.618;0.336;2023-03-07T03:12:26;9;9;
63662;PMS5003;49815;51.618;0.336;2023-03-07T03:14:52;7;7;
63662;PMS5003;49815;51.618;0.336;2023-03-07T03:17:17;8;8;
63662;PMS5003;49815;51.618;0.336;2023-03-07T03:19:43;9;9;
63662;PMS5003;49815;51.618;0.336;2023-03-07T03:22:09;9;7;
63662;PMS5003;49815;51.618;0.336;2023-03-07T03:24:36;6;6;
63662;PMS5003;49815;51.618;0.336;2023-03-07T03:27:00;10;9;
63662;PMS5003;49815;51.618;0.336;2023-03-07T03:29:26;7;7;
63662;PMS5003;49815;51.618;0.336;2023-03-07T03:31:51;7;7;
63662;PMS5003;49815;51.618;0.336;2023-03-07T03:34:17;12;9;
63662;PMS5003;49815;51.618;0.336;2023-03-07T03:36:43;9;8;
63662;PMS5003;49815;51.618;0.336;2023-03-07T03:39:09;10;9;
63662;PMS5003;49815;51.618;0.336;2023-03-07T03:41:34;11;11;
63662;PMS5003;49815;51.618;0.336;2023-03-07T03:44:00;12;10;
63662;PMS5003;49815;51.618;0.336;2023-03-07T03:46:25;12;10;
63662;PMS5003;49815;51.618;0.336;2023-03-07T03:48:51;10;10;
63662;PMS5003;49815;51.618;0.336;2023-03-07T03:51:17;9;9;
63662;PMS5003;49815;51.618;0.336;2023-03-07T03:53:43;8;8;
63662;PMS5003;49815;51.618;0.336;2023-03-07T03:56:09;10;9;
63662;PMS5003;49815;51.618;0.336;2023-03-07T03:58:34;13;10;
63662;PMS5003;49815;51.618;0.336;2023-03-07T04:01:00;9;9;
63662;PMS5003;49815;51.618;0.336;2023-03-07T04:03:25;9;9;
63662;PMS5003;49815;51.618;0.336;2023-03-07T04:05:51;8;8;
63662;PMS5003;49815;51.618;0.336;2023-03-07T04:08:16;11;11;
63662;PMS5003;49815;51.618;0.336;2023-03-07T04:10:42;11;9;
63662;PMS5003;49815;51.618;0.336;2023-03-07T04:13:07;11;8;
63662;PMS5003;49815;51.618;0.336;2023-03-07T04:15:33;9;9;
63662;PMS5003;49815;51.618;0.336;2023-03-07T04:17:59;11;11;
63662;PMS5003;49815;51.618;0.336;2023-03-07T04:20:24;8;8;
63662;PMS5003;49815;51.618;0.336;2023-03-07T04:22:49;13;13;
63662;PMS5003;49815;51.618;0.336;2023-03-07T04:25:15;9;9;
63662;PMS5003;49815;51.618;0.336;2023-03-07T04:27:40;8;8;
63662;PMS5003;49815;51.618;0.336;2023-03-07T04:30:07;13;9;
63662;PMS5003;49815;51.618;0.336;2023-03-07T04:32:32;7;7;
63662;PMS5003;49815;51.618;0.336;2023-03-07T04:34:58;9;9;
63662;PMS5003;49815;51.618;0.336;2023-03-07T04:37:23;7;7;
63662;PMS5003;49815;51.618;0.336;2023-03-07T04:39:49;12;11;
63662;PMS5003;49815;51.618;0.336;2023-03-07T04:42:14;15;14;
63662;PMS5003;49815;51.618;0.336;2023-03-07T04:44:40;9;8;
63662;PMS5003;49815;51.618;0.336;2023-03-07T04:47:05;9;9;
63662;PMS5003;49815;51.618;0.336;2023-03-07T04:49:31;11;9;
63662;PMS5003;49815;51.618;0.336;2023-03-07T04:51:57;8;8;
63662;PMS5003;49815;51.618;0.336;2023-03-07T04:54:22;9;9;
63662;PMS5003;49815;51.618;0.336;2023-03-07T04:56:48;9;7;
63662;PMS5003;49815;51.618;0.336;2023-03-07T04:59:14;9;9;
63662;PMS5003;49815;51.618;0.336;2023-03-07T05:01:40;9;9;
63662;PMS5003;49815;51.618;0.336;2023-03-07T05:04:05;9;9;
63662;PMS5003;49815;51.618;0.336;2023-03-07T05:06:31;8;8;
63662;PMS5003;49815;51.618;0.336;2023-03-07T05:08:57;10;9;
63662;PMS5003;49815;51.618;0.336;2023-03-07T05:11:22;14;12;
63662;PMS5003;49815;51.618;0.336;2023-03-07T05:13:48;9;9;
63662;PMS5003;49815;51.618;0.336;2023-03-07T05:16:14;12;10;
63662;PMS5003;49815;51.618;0.336;2023-03-07T05:18:40;10;9;
63662;PMS5003;49815;51.618;0.336;2023-03-07T05:21:05;9;8;
63662;PMS5003;49815;51.618;0.336;2023-03-07T05:23:31;12;12;
63662;PMS5003;49815;51.618;0.336;2023-03-07T05:25:57;10;9;
63662;PMS5003;49815;51.618;0.336;2023-03-07T05:28:23;13;12;
63662;PMS5003;49815;51.618;0.336;2023-03-07T05:30:48;10;10;
63662;PMS5003;49815;51.618;0.336;2023-03-07T05:33:14;12;9;
63662;PMS5003;49815;51.618;0.336;2023-03-07T05:35:39;13;13;
63662;PMS5003;49815;51.618;0.336;2023-03-07T05:38:04;12;10;
63662;PMS5003;49815;51.618;0.336;2023-03-07T05:40:30;10;9;
63662;PMS5003;49815;51.618;0.336;2023-03-07T05:42:56;12;12;
63662;PMS5003;49815;51.618;0.336;2023-03-07T05:45:21;15;10;
63662;PMS5003;49815;51.618;0.336;2023-03-07T05:47:47;10;10;
63662;PMS5003;49815;51.618;0.336;2023-03-07T05:50:13;10;10;
63662;PMS5003;49815;51.618;0.336;2023-03-07T05:52:38;12;10;
63662;PMS5003;49815;51.618;0.336;2023-03-07T05:55:04;11;11;
63662;PMS5003;49815;51.618;0.336;2023-03-07T05:57:30;10;10;
63662;PMS5003;49815;51.618;0.336;2023-03-07T05:59:55;13;12;
63662;PMS5003;49815;51.618;0.336;2023-03-07T06:02:21;13;10;
63662;PMS5003;49815;51.618;0.336;2023-03-07T06:04:47;13;12;
63662;PMS5003;49815;51.618;0.336;2023-03-07T06:07:12;13;13;
63662;PMS5003;49815;51.618;0.336;2023-03-07T06:09:38;11;8;
63662;PMS5003;49815;51.618;0.336;2023-03-07T06:12:04;9;9;
63662;PMS5003;49815;51.618;0.336;2023-03-07T06:14:30;12;10;
63662;PMS5003;49815;51.618;0.336;2023-03-07T06:16:55;12;10;
63662;PMS5003;49815;51.618;0.336;2023-03-07T06:19:21;12;10;
63662;PMS5003;49815;51.618;0.336;2023-03-07T06:21:46;15;15;
63662;PMS5003;49815;51.618;0.336;2023-03-07T06:24:12;20;18;
63662;PMS5003;49815;51.618;0.336;2023-03-07T06:26:38;20;18;
63662;PMS5003;49815;51.618;0.336;2023-03-07T06:29:04;20;17;
63662;PMS5003;49815;51.618;0.336;2023-03-07T06:31:29;26;23;
63662;PMS5003;49815;51.618;0.336;2023-03-07T06:33:55;21;17;
63662;PMS5003;49815;51.618;0.336;2023-03-07T06:36:20;19;15;
63662;PMS5003;49815;51.618;0.336;2023-03-07T06:38:46;21;19;
63662;PMS5003;49815;51.618;0.336;2023-03-07T06:41:11;18;18;
63662;PMS5003;49815;51.618;0.336;2023-03-07T06:43:37;23;23;
63662;PMS5003;49815;51.618;0.336;2023-03-07T06:46:02;19;19;
63662;PMS5003;49815;51.618;0.336;2023-03-07T06:48:28;22;20;
63662;PMS5003;49815;51.618;0.336;2023-03-07T06:50:53;24;21;
63662;PMS5003;49815;51.618;0.336;2023-03-07T06:53:18;15;15;
63662;PMS5003;49815;51.618;0.336;2023-03-07T06:55:46;18;18;
63662;PMS5003;49815;51.618;0.336;2023-03-07T06:58:09;19;18;
63662;PMS5003;49815;51.618;0.336;2023-03-07T07:00:34;25;19;
63662;PMS5003;49815;51.618;0.336;2023-03-07T07:03:00;20;20;
63662;PMS5003;49815;51.618;0.336;2023-03-07T07:05:25;16;15;
63662;PMS5003;49815;51.618;0.336;2023-03-07T07:07:51;22;18;
63662;PMS5003;49815;51.618;0.336;2023-03-07T07:10:17;16;15;
63662;PMS5003;49815;51.618;0.336;2023-03-07T07:12:43;15;15;
63662;PMS5003;49815;51.618;0.336;2023-03-07T07:15:08;25;20;
63662;PMS5003;49815;51.618;0.336;2023-03-07T07:17:34;19;18;
63662;PMS5003;49815;51.618;0.336;2023-03-07T07:19:59;25;21;
63662;PMS5003;49815;51.618;0.336;2023-03-07T07:22:25;18;18;
63662;PMS5003;49815;51.618;0.336;2023-03-07T07:24:51;15;15;
63662;PMS5003;49815;51.618;0.336;2023-03-07T07:27:16;18;18;
63662;PMS5003;49815;51.618;0.336;2023-03-07T07:29:42;18;18;
63662;PMS5003;49815;51.618;0.336;2023-03-07T07:32:07;17;15;
63662;PMS5003;49815;51.618;0.336;2023-03-07T07:34:33;22;17;
63662;PMS5003;49815;51.618;0.336;2023-03-07T07:36:58;21;20;
63662;PMS5003;49815;51.618;0.336;2023-03-07T07:39:24;21;20;
63662;PMS5003;49815;51.618;0.336;2023-03-07T07:41:50;19;17;
63662;PMS5003;49815;51.618;0.336;2023-03-07T07:44:15;19;17;
63662;PMS5003;49815;51.618;0.336;2023-03-07T07:46:41;19;16;
63662;PMS5003;49815;51.618;0.336;2023-03-07T07:49:07;21;17;
63662;PMS5003;49815;51.618;0.336;2023-03-07T07:51:32;19;17;
63662;PMS5003;49815;51.618;0.336;2023-03-07T07:53:58;15;15;
63662;PMS5003;49815;51.618;0.336;2023-03-07T07:56:23;15;14;
63662;PMS5003;49815;51.618;0.336;2023-03-07T07:58:49;22;17;
63662;PMS5003;49815;51.618;0.336;2023-03-07T08:01:14;15;15;
63662;PMS5003;49815;51.618;0.336;2023-03-07T08:03:40;20;20;
63662;PMS5003;49815;51.618;0.336;2023-03-07T08:06:05;17;16;
63662;PMS5003;49815;51.618;0.336;2023-03-07T08:08:30;21;18;
63662;PMS5003;49815;51.618;0.336;2023-03-07T08:10:55;25;21;
63662;PMS5003;49815;51.618;0.336;2023-03-07T08:13:20;20;17;
63662;PMS5003;49815;51.618;0.336;2023-03-07T08:15:46;27;24;
63662;PMS5003;49815;51.618;0.336;2023-03-07T08:18:11;16;15;
63662;PMS5003;49815;51.618;0.336;2023-03-07T08:20:37;18;18;
63662;PMS5003;49815;51.618;0.336;2023-03-07T08:23:02;16;16;
63662;PMS5003;49815;51.618;0.336;2023-03-07T08:25:27;20;18;
63662;PMS5003;49815;51.618;0.336;2023-03-07T08:27:53;21;17;
63662;PMS5003;49815;51.618;0.336;2023-03-07T08:30:18;22;20;
63662;PMS5003;49815;51.618;0.336;2023-03-07T08:32:43;21;17;
63662;PMS5003;49815;51.618;0.336;2023-03-07T08:35:09;22;18;
63662;PMS5003;49815;51.618;0.336;2023-03-07T08:37:34;19;16;
63662;PMS5003;49815;51.618;0.336;2023-03-07T08:40:00;19;18;
63662;PMS5003;49815;51.618;0.336;2023-03-07T08:42:25;16;16;
63662;PMS5003;49815;51.618;0.336;2023-03-07T08:44:50;17;17;
63662;PMS5003;49815;51.618;0.336;2023-03-07T08:47:15;17;15;
63662;PMS5003;49815;51.618;0.336;2023-03-07T08:49:41;19;16;
63662;PMS5003;49815;51.618;0.336;2023-03-07T08:52:07;19;19;
63662;PMS5003;49815;51.618;0.336;2023-03-07T08:54:32;11;11;
63662;PMS5003;49815;51.618;0.336;2023-03-07T08:56:58;12;11;
63662;PMS5003;49815;51.618;0.336;2023-03-07T08:59:23;17;15;
63662;PMS5003;49815;51.618;0.336;2023-03-07T09:01:49;10;10;
63662;PMS5003;49815;51.618;0.336;2023-03-07T09:04:14;10;10;
63662;PMS5003;49815;51.618;0.336;2023-03-07T09:06:39;12;12;
63662;PMS5003;49815;51.618;0.336;2023-03-07T09:09:05;13;13;
63662;PMS5003;49815;51.618;0.336;2023-03-07T09:11:31;15;12;
63662;PMS5003;49815;51.618;0.336;2023-03-07T09:13:56;10;10;
63662;PMS5003;49815;51.618;0.336;2023-03-07T09:16:22;11;9;
63662;PMS5003;49815;51.618;0.336;2023-03-07T09:18:48;9;8;
63662;PMS5003;49815;51.618;0.336;2023-03-07T09:21:13;11;10;
63662;PMS5003;49815;51.618;0.336;2023-03-07T09:23:41;12;10;
63662;PMS5003;49815;51.618;0.336;2023-03-07T09:26:04;6;6;
63662;PMS5003;49815;51.618;0.336;2023-03-07T09:28:30;10;8;
63662;PMS5003;49815;51.618;0.336;2023-03-07T09:30:55;11;11;
63662;PMS5003;49815;51.618;0.336;2023-03-07T09:33:21;8;8;
63662;PMS5003;49815;51.618;0.336;2023-03-07T09:35:46;8;8;
63662;PMS5003;49815;51.618;0.336;2023-03-07T09:38:12;11;11;
63662;PMS5003;49815;51.618;0.336;2023-03-07T09:40:38;9;9;
63662;PMS5003;49815;51.618;0.336;2023-03-07T09:43:05;11;11;
63662;PMS5003;49815;51.618;0.336;2023-03-07T09:45:31;12;11;
63662;PMS5003;49815;51.618;0.336;2023-03-07T09:47:57;11;11;
63662;PMS5003;49815;51.618;0.336;2023-03-07T09:50:21;14;13;
63662;PMS5003;49815;51.618;0.336;2023-03-07T09:52:45;12;10;
63662;PMS5003;49815;51.618;0.336;2023-03-07T09:55:12;17;14;
63662;PMS5003;49815;51.618;0.336;2023-03-07T09:57:38;17;17;
63662;PMS5003;49815;51.618;0.336;2023-03-07T10:00:02;13;12;
63662;PMS5003;49815;51.618;0.336;2023-03-07T10:02:28;10;10;
63662;PMS5003;49815;51.618;0.336;2023-03-07T10:04:54;19;15;
63662;PMS5003;49815;51.618;0.336;2023-03-07T10:07:19;16;16;
63662;PMS5003;49815;51.618;0.336;2023-03-07T10:09:44;13;13;
63662;PMS5003;49815;51.618;0.336;2023-03-07T10:12:16;12;12;
63662;PMS5003;49815;51.618;0.336;2023-03-07T10:14:40;14;14;
63662;PMS5003;49815;51.618;0.336;2023-03-07T10:17:02;19;17;
63662;PMS5003;49815;51.618;0.336;2023-03-07T10:19:27;18;16;
63662;PMS5003;49815;51.618;0.336;2023-03-07T10:21:54;13;13;
63662;PMS5003;49815;51.618;0.336;2023-03-07T10:24:22;17;17;
63662;PMS5003;49815;51.618;0.336;2023-03-07T10:26:45;13;13;
63662;PMS5003;49815;51.618;0.336;2023-03-07T10:29:11;13;13;
63662;PMS5003;49815;51.618;0.336;2023-03-07T10:31:36;12;12;
63662;PMS5003;49815;51.618;0.336;2023-03-07T10:34:00;19;16;
63662;PMS5003;49815;51.618;0.336;2023-03-07T10:36:29;19;18;
63662;PMS5003;49815;51.618;0.336;2023-03-07T10:38:53;23;22;
63662;PMS5003;49815;51.618;0.336;2023-03-07T10:41:16;16;16;
63662;PMS5003;49815;51.618;0.336;2023-03-07T10:43:42;18;14;
63662;PMS5003;49815;51.618;0.336;2023-03-07T10:46:10;16;14;
63662;PMS5003;49815;51.618;0.336;2023-03-07T10:48:32;15;15;
63662;PMS5003;49815;51.618;0.336;2023-03-07T10:51:00;12;12;
63662;PMS5003;49815;51.618;0.336;2023-03-07T10:53:24;15;15;
63662;PMS5003;49815;51.618;0.336;2023-03-07T10:55:49;14;12;
63662;PMS5003;49815;51.618;0.336;2023-03-07T10:58:20;17;14;
63662;PMS5003;49815;51.618;0.336;2023-03-07T11:00:39;17;14;
63662;PMS5003;49815;51.618;0.336;2023-03-07T11:05:31;11;11;
63662;PMS5003;49815;51.618;0.336;2023-03-07T11:07:56;18;16;
63662;PMS5003;49815;51.618;0.336;2023-03-07T11:10:23;20;18;
63662;PMS5003;49815;51.618;0.336;2023-03-07T11:12:47;19;18;
63662;PMS5003;49815;51.618;0.336;2023-03-07T11:15:17;22;16;
63662;PMS5003;49815;51.618;0.336;2023-03-07T11:17:39;18;15;
63662;PMS5003;49815;51.618;0.336;2023-03-07T11:20:10;23;19;
63662;PMS5003;49815;51.618;0.336;2023-03-07T11:22:30;19;18;
63662;PMS5003;49815;51.618;0.336;2023-03-07T11:24:57;16;16;
63662;PMS5003;49815;51.618;0.336;2023-03-07T11:27:21;20;18;
63662;PMS5003;49815;51.618;0.336;2023-03-07T11:29:46;20;19;
63662;PMS5003;49815;51.618;0.336;2023-03-07T11:32:11;18;16;
63662;PMS5003;49815;51.618;0.336;2023-03-07T11:34:38;19;16;
63662;PMS5003;49815;51.618;0.336;2023-03-07T11:37:14;15;15;
63662;PMS5003;49815;51.618;0.336;2023-03-07T11:39:30;16;13;
63662;PMS5003;49815;51.618;0.336;2023-03-07T11:41:54;21;16;
63662;PMS5003;49815;51.618;0.336;2023-03-07T11:44:24;21;18;
63662;PMS5003;49815;51.618;0.336;2023-03-07T11:49:15;17;17;
63662;PMS5003;49815;51.618;0.336;2023-03-07T11:51:39;18;17;
63662;PMS5003;49815;51.618;0.336;2023-03-07T11:54:03;19;17;
63662;PMS5003;49815;51.618;0.336;2023-03-07T11:56:27;14;14;
63662;PMS5003;49815;51.618;0.336;2023-03-07T11:58:57;21;20;
63662;PMS5003;49815;51.618;0.336;2023-03-07T12:01:19;17;17;
63662;PMS5003;49815;51.618;0.336;2023-03-07T12:03:49;21;15;
63662;PMS5003;49815;51.618;0.336;2023-03-07T12:06:13;17;17;
63662;PMS5003;49815;51.618;0.336;2023-03-07T12:08:36;18;18;
63662;PMS5003;49815;51.618;0.336;2023-03-07T12:11:03;23;20;
63662;PMS5003;49815;51.618;0.336;2023-03-07T12:13:28;23;20;
63662;PMS5003;49815;51.618;0.336;2023-03-07T12:15:51;26;21;
63662;PMS5003;49815;51.618;0.336;2023-03-07T12:18:20;20;19;
63662;PMS5003;49815;51.618;0.336;2023-03-07T12:20:44;29;26;
63662;PMS5003;49815;51.618;0.336;2023-03-07T12:23:09;24;21;
63662;PMS5003;49815;51.618;0.336;2023-03-07T12:25:34;25;21;
63662;PMS5003;49815;51.618;0.336;2023-03-07T12:28:02;23;23;
63662;PMS5003;49815;51.618;0.336;2023-03-07T12:30:25;14;14;
63662;PMS5003;49815;51.618;0.336;2023-03-07T12:32:49;23;19;
63662;PMS5003;49815;51.618;0.336;2023-03-07T12:35:16;30;25;
63662;PMS5003;49815;51.618;0.336;2023-03-07T12:37:41;22;22;
63662;PMS5003;49815;51.618;0.336;2023-03-07T12:40:09;26;22;
63662;PMS5003;49815;51.618;0.336;2023-03-07T12:42:31;23;21;
63662;PMS5003;49815;51.618;0.336;2023-03-07T12:44:57;26;20;
63662;PMS5003;49815;51.618;0.336;2023-03-07T12:47:24;17;17;
63662;PMS5003;49815;51.618;0.336;2023-03-07T12:49:50;21;19;
63662;PMS5003;49815;51.618;0.336;2023-03-07T12:52:13;20;20;
63662;PMS5003;49815;51.618;0.336;2023-03-07T12:54:39;22;22;
63662;PMS5003;49815;51.618;0.336;2023-03-07T12:57:05;22;21;
63662;PMS5003;49815;51.618;0.336;2023-03-07T12:59:29;19;17;
63662;PMS5003;49815;51.618;0.336;2023-03-07T13:01:57;19;19;
63662;PMS5003;49815;51.618;0.336;2023-03-07T13:04:21;31;25;
63662;PMS5003;49815;51.618;0.336;2023-03-07T13:06:46;16;16;
63662;PMS5003;49815;51.618;0.336;2023-03-07T13:09:13;21;18;
63662;PMS5003;49815;51.618;0.336;2023-03-07T13:11:37;22;20;
63662;PMS5003;49815;51.618;0.336;2023-03-07T13:14:02;22;22;
63662;PMS5003;49815;51.618;0.336;2023-03-07T13:16:32;27;26;
63662;PMS5003;49815;51.618;0.336;2023-03-07T13:18:53;35;29;
63662;PMS5003;49815;51.618;0.336;2023-03-07T13:23:44;29;25;
63662;PMS5003;49815;51.618;0.336;2023-03-07T13:26:11;23;23;
63662;PMS5003;49815;51.618;0.336;2023-03-07T13:28:40;23;22;
63662;PMS5003;49815;51.618;0.336;2023-03-07T13:33:27;22;22;
63662;PMS5003;49815;51.618;0.336;2023-03-07T13:35:54;19;19;
63662;PMS5003;49815;51.618;0.336;2023-03-07T13:47:59;22;17;
63662;PMS5003;49815;51.618;0.336;2023-03-07T13:52:50;17;17;
63662;PMS5003;49815;51.618;0.336;2023-03-07T13:55:19;21;21;
63662;PMS5003;49815;51.618;0.336;2023-03-07T13:57:41;20;19;
63662;PMS5003;49815;51.618;0.336;2023-03-07T14:02:32;19;18;
63662;PMS5003;49815;51.618;0.336;2023-03-07T14:04:57;22;18;
63662;PMS5003;49815;51.618;0.336;2023-03-07T14:07:23;18;18;
63662;PMS5003;49815;51.618;0.336;2023-03-07T14:09:48;24;22;
63662;PMS5003;49815;51.618;0.336;2023-03-07T14:12:14;22;20;
63662;PMS5003;49815;51.618;0.336;2023-03-07T14:14:44;10;10;
63662;PMS5003;49815;51.618;0.336;2023-03-07T14:17:09;13;13;
63662;PMS5003;49815;51.618;0.336;2023-03-07T14:19:36;8;8;
63662;PMS5003;49815;51.618;0.336;2023-03-07T14:21:57;11;11;
63662;PMS5003;49815;51.618;0.336;2023-03-07T14:24:28;12;12;
63662;PMS5003;49815;51.618;0.336;2023-03-07T14:26:48;10;10;
63662;PMS5003;49815;51.618;0.336;2023-03-07T14:29:14;12;12;
63662;PMS5003;49815;51.618;0.336;2023-03-07T14:31:39;12;12;
63662;PMS5003;49815;51.618;0.336;2023-03-07T14:36:30;13;13;
63662;PMS5003;49815;51.618;0.336;2023-03-07T14:38:57;14;13;
63662;PMS5003;49815;51.618;0.336;2023-03-07T14:41:25;13;13;
63662;PMS5003;49815;51.618;0.336;2023-03-07T14:43:50;19;16;
63662;PMS5003;49815;51.618;0.336;2023-03-07T14:46:12;17;14;
63662;PMS5003;49815;51.618;0.336;2023-03-07T14:48:41;12;12;
63662;PMS5003;49815;51.618;0.336;2023-03-07T14:51:05;15;12;
63662;PMS5003;49815;51.618;0.336;2023-03-07T14:53:29;18;14;
63662;PMS5003;49815;51.618;0.336;2023-03-07T14:55:54;17;17;
63662;PMS5003;49815;51.618;0.336;2023-03-07T14:58:20;12;12;
63662;PMS5003;49815;51.618;0.336;2023-03-07T15:00:45;18;15;
63662;PMS5003;49815;51.618;0.336;2023-03-07T15:03:12;14;14;
63662;PMS5003;49815;51.618;0.336;2023-03-07T15:05:44;11;11;
63662;PMS5003;49815;51.618;0.336;2023-03-07T15:08:05;15;15;
63662;PMS5003;49815;51.618;0.336;2023-03-07T15:10:28;16;14;
63662;PMS5003;49815;51.618;0.336;2023-03-07T15:12:53;18;15;
63662;PMS5003;49815;51.618;0.336;2023-03-07T15:15:22;17;17;
63662;PMS5003;49815;51.618;0.336;2023-03-07T15:17:43;14;14;
63662;PMS5003;49815;51.618;0.336;2023-03-07T15:20:09;19;15;
63662;PMS5003;49815;51.618;0.336;2023-03-07T15:22:35;20;19;
63662;PMS5003;49815;51.618;0.336;2023-03-07T15:25:00;20;18;
63662;PMS5003;49815;51.618;0.336;2023-03-07T15:27:26;14;14;
63662;PMS5003;49815;51.618;0.336;2023-03-07T15:29:51;14;14;
63662;PMS5003;49815;51.618;0.336;2023-03-07T15:34:42;11;11;
63662;PMS5003;49815;51.618;0.336;2023-03-07T15:39:33;11;9;
63662;PMS5003;49815;51.618;0.336;2023-03-07T15:42:00;9;8;
63662;PMS5003;49815;51.618;0.336;2023-03-07T15:44:25;10;6;
63662;PMS5003;49815;51.618;0.336;2023-03-07T15:46:51;11;9;
63662;PMS5003;49815;51.618;0.336;2023-03-07T15:49:20;9;6;
63662;PMS5003;49815;51.618;0.336;2023-03-07T15:51:41;8;8;
63662;PMS5003;49815;51.618;0.336;2023-03-07T15:54:14;5;5;
63662;PMS5003;49815;51.618;0.336;2023-03-07T15:56:33;8;8;
63662;PMS5003;49815;51.618;0.336;2023-03-07T15:58:59;6;6;
63662;PMS5003;49815;51.618;0.336;2023-03-07T16:01:24;8;8;
63662;PMS5003;49815;51.618;0.336;2023-03-07T16:03:50;8;8;
63662;PMS5003;49815;51.618;0.336;2023-03-07T16:08:40;9;9;
63662;PMS5003;49815;51.618;0.336;2023-03-07T16:11:06;13;11;
63662;PMS5003;49815;51.618;0.336;2023-03-07T16:13:36;9;9;
63662;PMS5003;49815;51.618;0.336;2023-03-07T16:15:58;9;9;
63662;PMS5003;49815;51.618;0.336;2023-03-07T16:18:23;8;8;
63662;PMS5003;49815;51.618;0.336;2023-03-07T16:20:49;8;8;
63662;PMS5003;49815;51.618;0.336;2023-03-07T16:23:14;8;6;
63662;PMS5003;49815;51.618;0.336;2023-03-07T16:25:40;9;9;
63662;PMS5003;49815;51.618;0.336;2023-03-07T16:28:07;11;9;
63662;PMS5003;49815;51.618;0.336;2023-03-07T16:30:31;10;8;
63662;PMS5003;49815;51.618;0.336;2023-03-07T16:32:57;17;14;
63662;PMS5003;49815;51.618;0.336;2023-03-07T16:35:23;8;8;
63662;PMS5003;49815;51.618;0.336;2023-03-07T16:37:48;7;7;
63662;PMS5003;49815;51.618;0.336;2023-03-07T16:40:14;9;9;
63662;PMS5003;49815;51.618;0.336;2023-03-07T16:42:40;11;11;
63662;PMS5003;49815;51.618;0.336;2023-03-07T16:45:06;9;9;
63662;PMS5003;49815;51.618;0.336;2023-03-07T16:47:30;11;11;
63662;PMS5003;49815;51.618;0.336;2023-03-07T16:49:56;8;8;